createdAt,value
2018-08-07T00:00:21.284Z,19.90
2018-08-07T00:03:02.235Z,19.80
2018-08-07T00:05:42.989Z,19.80
2018-08-07T00:08:23.540Z,19.90
2018-08-07T00:11:04.079Z,19.90
2018-08-07T00:13:44.577Z,19.80
2018-08-07T00:16:25.122Z,19.80
2018-08-07T00:19:05.501Z,19.80
2018-08-07T00:21:45.859Z,19.70
2018-08-07T00:24:26.741Z,19.70
2018-08-07T00:27:07.613Z,19.70
2018-08-07T00:29:48.249Z,19.70
2018-08-07T00:32:28.771Z,19.70
2018-08-07T00:35:13.709Z,19.70
2018-08-07T00:37:54.707Z,19.60
2018-08-07T00:40:35.392Z,19.60
2018-08-07T00:43:16.190Z,19.60
2018-08-07T00:45:56.706Z,19.60
2018-08-07T00:48:37.466Z,19.50
2018-08-07T00:56:38.566Z,19.40
2018-08-07T00:59:19.429Z,19.30
2018-08-07T01:02:00.486Z,19.40
2018-08-07T01:07:21.876Z,19.40
2018-08-07T01:10:02.713Z,19.30
2018-08-07T01:12:43.384Z,19.30
2018-08-07T01:15:23.907Z,19.30
2018-08-07T01:18:04.784Z,19.30
2018-08-07T01:20:45.288Z,19.20
2018-08-07T01:23:25.772Z,19.20
2018-08-07T01:26:06.660Z,19.10
2018-08-07T01:28:47.313Z,19.20
2018-08-07T01:31:27.709Z,19.20
2018-08-07T01:34:08.582Z,19.20
2018-08-07T01:36:48.922Z,19.10
2018-08-07T01:39:29.533Z,19.20
2018-08-07T01:42:09.946Z,19.20
2018-08-07T01:44:50.521Z,19.20
2018-08-07T01:47:31.701Z,19.20
2018-08-07T01:50:14.108Z,19.30
2018-08-07T01:52:55.085Z,19.30
2018-08-07T01:55:37.217Z,19.20
2018-08-07T01:58:18.142Z,19.20
2018-08-07T02:00:58.739Z,19.20
2018-08-07T02:03:39.285Z,19.20
2018-08-07T02:06:20.201Z,19.20
2018-08-07T02:09:00.992Z,19.20
2018-08-07T02:11:41.831Z,19.10
2018-08-07T02:14:23.145Z,19.10
2018-08-07T02:17:04.286Z,19.10
2018-08-07T02:22:25.800Z,19.20
2018-08-07T02:25:09.846Z,19.20
2018-08-07T02:27:50.693Z,19.20
2018-08-07T02:30:31.446Z,19.20
2018-08-07T02:33:11.858Z,19.20
2018-08-07T02:35:52.778Z,19.20
2018-08-07T02:38:33.162Z,19.20
2018-08-07T02:41:14.063Z,19.20
2018-08-07T02:43:55.060Z,19.30
2018-08-07T02:46:36.227Z,19.30
2018-08-07T02:49:16.997Z,19.30
2018-08-07T02:51:57.824Z,19.30
2018-08-07T02:54:39.254Z,19.30
2018-08-07T02:57:19.981Z,19.30
2018-08-07T03:00:01.142Z,19.30
2018-08-07T03:02:41.504Z,19.30
2018-08-07T03:08:03.193Z,19.30
2018-08-07T03:10:43.668Z,19.20
2018-08-07T03:13:24.534Z,19.20
2018-08-07T03:16:05.063Z,19.20
2018-08-07T03:18:46.260Z,19.10
2018-08-07T03:21:26.722Z,19.10
2018-08-07T03:24:13.567Z,19.10
2018-08-07T03:26:54.099Z,19.10
2018-08-07T03:29:35.171Z,19.10
2018-08-07T03:32:16.316Z,19.10
2018-08-07T03:34:57.020Z,19.00
2018-08-07T03:37:38.599Z,19.00
2018-08-07T03:40:19.953Z,19.00
2018-08-07T03:43:00.665Z,19.00
2018-08-07T03:45:41.490Z,19.00
2018-08-07T03:48:22.424Z,19.00
2018-08-07T03:51:03.021Z,19.00
2018-08-07T03:53:43.932Z,19.00
2018-08-07T03:56:24.695Z,19.00
2018-08-07T03:59:05.623Z,19.00
2018-08-07T04:01:46.609Z,19.00
2018-08-07T04:04:27.314Z,19.00
2018-08-07T04:07:08.196Z,19.00
2018-08-07T04:09:48.788Z,19.00
2018-08-07T04:12:30.011Z,19.00
2018-08-07T04:15:16.410Z,19.10
2018-08-07T04:17:57.599Z,19.10
2018-08-07T04:20:38.387Z,19.10
2018-08-07T04:23:18.856Z,19.20
2018-08-07T04:25:59.743Z,19.20
2018-08-07T04:28:40.661Z,19.30
2018-08-07T04:31:22.106Z,19.30
2018-08-07T04:34:02.536Z,19.40
2018-08-07T04:36:43.069Z,19.40
2018-08-07T04:39:23.959Z,19.50
2018-08-07T04:42:04.511Z,19.50
2018-08-07T04:44:45.174Z,19.60
2018-08-07T04:47:26.030Z,19.60
2018-08-07T04:50:07.387Z,19.70
2018-08-07T04:55:28.552Z,20.40
2018-08-07T04:58:09.863Z,20.90
2018-08-07T05:00:50.681Z,20.80
2018-08-07T05:03:31.219Z,20.70
2018-08-07T05:06:11.695Z,20.80
2018-08-07T05:08:52.248Z,20.80
2018-08-07T05:11:32.716Z,20.60
2018-08-07T05:14:13.999Z,20.50
2018-08-07T05:16:54.755Z,20.60
2018-08-07T05:19:35.842Z,20.70
2018-08-07T05:22:16.327Z,20.70
2018-08-07T05:24:57.138Z,20.80
2018-08-07T05:27:38.289Z,20.80
2018-08-07T05:30:19.145Z,20.90
2018-08-07T05:32:59.578Z,20.90
2018-08-07T05:35:40.718Z,20.90
2018-08-07T05:38:21.150Z,21.10
2018-08-07T05:41:01.666Z,21.20
2018-08-07T05:43:42.458Z,21.40
2018-08-07T05:46:22.971Z,21.50
2018-08-07T05:49:03.875Z,21.70
2018-08-07T05:51:45.312Z,22.20
2018-08-07T05:54:26.065Z,22.80
2018-08-07T05:57:06.476Z,22.60
2018-08-07T05:59:46.900Z,22.50
2018-08-07T06:02:27.352Z,22.40
2018-08-07T06:05:08.758Z,22.30
2018-08-07T06:07:49.540Z,22.30
2018-08-07T06:10:29.917Z,22.50
2018-08-07T06:13:11.129Z,22.60
2018-08-07T06:18:32.360Z,22.60
2018-08-07T06:21:13.243Z,22.70
2018-08-07T06:23:53.834Z,22.80
2018-08-07T06:26:34.555Z,23.00
2018-08-07T06:29:15.285Z,23.20
2018-08-07T06:31:56.052Z,23.30
2018-08-07T06:34:36.808Z,23.40
2018-08-07T06:37:17.854Z,23.60
2018-08-07T06:39:58.621Z,23.70
2018-08-07T06:42:39.369Z,23.80
2018-08-07T06:45:20.074Z,23.90
2018-08-07T06:48:00.488Z,24.10
2018-08-07T06:50:41.201Z,24.20
2018-08-07T06:53:21.983Z,24.50
2018-08-07T06:56:02.814Z,24.80
2018-08-07T06:58:43.574Z,25.10
2018-08-07T07:01:24.050Z,25.20
2018-08-07T07:04:04.591Z,25.30
2018-08-07T07:06:45.449Z,25.40
2018-08-07T07:09:26.227Z,25.50
2018-08-07T07:12:07.738Z,25.70
2018-08-07T07:14:48.620Z,25.80
2018-08-07T07:17:29.996Z,25.80
2018-08-07T07:20:13.152Z,25.90
2018-08-07T07:22:54.367Z,26.00
2018-08-07T07:25:35.188Z,26.20
2018-08-07T07:28:15.804Z,26.30
2018-08-07T07:30:56.653Z,26.50
2018-08-07T07:33:37.467Z,26.50
2018-08-07T07:36:17.984Z,26.70
2018-08-07T07:41:40.009Z,27.40
2018-08-07T07:44:21.136Z,27.70
2018-08-07T07:47:02.029Z,27.90
2018-08-07T07:49:42.866Z,28.10
2018-08-07T07:52:23.377Z,28.30
2018-08-07T07:55:03.730Z,28.70
2018-08-07T07:57:44.797Z,29.50
2018-08-07T08:00:27.028Z,29.80
2018-08-07T08:03:08.017Z,30.00
2018-08-07T08:05:48.444Z,31.60
2018-08-07T08:08:29.605Z,33.80
2018-08-07T08:11:10.917Z,35.40
2018-08-07T08:13:51.451Z,37.00
2018-08-07T08:16:32.407Z,37.80
2018-08-07T08:19:13.369Z,38.40
2018-08-07T08:21:53.950Z,39.40
2018-08-07T08:24:35.141Z,38.80
2018-08-07T08:27:15.618Z,39.30
2018-08-07T08:29:56.371Z,40.10
2018-08-07T08:32:37.690Z,40.90
2018-08-07T08:35:19.608Z,40.80
2018-08-07T08:38:00.430Z,40.90
2018-08-07T08:40:40.789Z,41.00
2018-08-07T08:43:22.163Z,41.30
2018-08-07T08:46:02.606Z,41.30
2018-08-07T08:48:43.272Z,41.00
2018-08-07T08:51:24.579Z,41.10
2018-08-07T08:54:05.135Z,41.50
2018-08-07T08:56:45.939Z,41.60
2018-08-07T08:59:26.780Z,41.60
2018-08-07T09:02:07.990Z,41.40
2018-08-07T09:04:48.630Z,41.40
2018-08-07T09:07:30.533Z,41.90
2018-08-07T09:10:30.309Z,41.90
2018-08-07T09:13:11.313Z,42.00
2018-08-07T09:15:51.677Z,42.60
2018-08-07T09:18:32.431Z,43.20
2018-08-07T09:21:13.811Z,43.50
2018-08-07T09:23:54.294Z,43.40
2018-08-07T09:26:34.818Z,43.70
2018-08-07T09:29:15.685Z,43.60
2018-08-07T09:31:57.012Z,43.30
2018-08-07T09:34:37.949Z,43.60
2018-08-07T09:37:18.833Z,44.10
2018-08-07T09:39:59.809Z,43.40
2018-08-07T09:42:41.622Z,42.10
2018-08-07T09:45:26.195Z,42.80
2018-08-07T09:48:12.721Z,43.60
2018-08-07T09:50:53.957Z,44.10
2018-08-07T09:53:34.685Z,44.80
2018-08-07T09:56:15.794Z,44.10
2018-08-07T09:58:57.007Z,43.00
2018-08-07T10:03:44.961Z,42.40
2018-08-07T10:06:25.416Z,42.40
2018-08-07T10:09:08.925Z,42.70
2018-08-07T10:11:49.745Z,43.30
2018-08-07T10:14:31.585Z,42.90
2018-08-07T10:17:13.273Z,43.50
2018-08-07T10:19:54.457Z,43.70
2018-08-07T10:22:34.947Z,44.90
2018-08-07T10:25:17.251Z,45.50
2018-08-07T10:27:57.764Z,45.60
2018-08-07T10:30:38.943Z,45.40
2018-08-07T10:33:19.581Z,44.60
2018-08-07T10:38:40.334Z,44.20
2018-08-07T10:41:21.151Z,44.00
2018-08-07T10:44:02.051Z,43.90
2018-08-07T10:46:43.610Z,44.10
2018-08-07T10:49:24.299Z,44.20
2018-08-07T10:52:04.869Z,44.60
2018-08-07T10:54:45.658Z,44.80
2018-08-07T10:57:26.245Z,45.50
2018-08-07T11:00:15.457Z,45.50
2018-08-07T11:02:56.610Z,44.10
2018-08-07T11:05:37.478Z,43.70
2018-08-07T11:08:18.932Z,42.90
2018-08-07T11:10:59.965Z,43.20
2018-08-07T11:13:40.880Z,43.60
2018-08-07T11:16:22.149Z,44.40
2018-08-07T11:19:02.614Z,44.10
2018-08-07T11:21:44.428Z,44.20
2018-08-07T11:24:25.057Z,43.70
2018-08-07T11:27:05.789Z,42.20
2018-08-07T11:29:46.796Z,42.10
2018-08-07T11:32:27.378Z,42.20
2018-08-07T11:35:07.952Z,42.20
2018-08-07T11:37:50.253Z,42.50
2018-08-07T11:40:30.969Z,42.40
2018-08-07T11:43:11.616Z,42.60
2018-08-07T11:45:52.916Z,42.30
2018-08-07T11:48:33.507Z,42.20
2018-08-07T11:51:14.747Z,42.60
2018-08-07T11:53:56.373Z,43.50
2018-08-07T11:56:36.804Z,43.70
2018-08-07T11:59:20.148Z,43.00
2018-08-07T12:02:01.650Z,43.00
2018-08-07T12:04:44.079Z,43.40
2018-08-07T12:07:24.758Z,43.60
2018-08-07T12:10:07.830Z,43.40
2018-08-07T12:12:48.780Z,43.80
2018-08-07T12:15:29.458Z,43.80
2018-08-07T12:18:10.093Z,43.70
2018-08-07T12:20:51.092Z,43.80
2018-08-07T12:23:31.651Z,43.80
2018-08-07T12:26:12.213Z,43.30
2018-08-07T12:28:52.991Z,43.70
2018-08-07T12:31:33.935Z,44.00
2018-08-07T12:34:14.889Z,43.70
2018-08-07T12:36:55.983Z,43.20
2018-08-07T12:39:37.121Z,43.00
2018-08-07T12:42:17.517Z,42.50
2018-08-07T12:44:58.252Z,42.90
2018-08-07T12:47:39.695Z,42.60
2018-08-07T12:50:20.426Z,43.40
2018-08-07T12:53:00.902Z,44.00
2018-08-07T12:55:41.696Z,43.80
2018-08-07T12:58:22.355Z,43.70
2018-08-07T13:01:03.089Z,43.20
2018-08-07T13:03:44.574Z,42.40
2018-08-07T13:06:25.249Z,41.50
2018-08-07T13:09:10.554Z,41.70
2018-08-07T13:11:51.188Z,42.20
2018-08-07T13:14:31.913Z,41.70
2018-08-07T13:17:12.905Z,41.20
2018-08-07T13:19:54.522Z,41.30
2018-08-07T13:22:35.830Z,41.20
2018-08-07T13:25:19.066Z,41.60
2018-08-07T13:27:59.787Z,40.30
2018-08-07T13:33:20.724Z,41.90
2018-08-07T13:36:01.553Z,42.00
2018-08-07T13:38:42.569Z,42.10
2018-08-07T13:41:23.081Z,42.10
2018-08-07T13:44:03.989Z,41.90
2018-08-07T13:46:44.633Z,41.50
2018-08-07T13:49:25.022Z,41.60
2018-08-07T13:52:05.922Z,41.50
2018-08-07T13:54:46.929Z,41.50
2018-08-07T13:57:27.874Z,41.10
2018-08-07T14:00:29.472Z,40.70
2018-08-07T14:03:10.481Z,40.40
2018-08-07T14:05:58.101Z,39.30
2018-08-07T14:08:38.668Z,39.00
2018-08-07T14:11:19.425Z,39.10
2018-08-07T14:13:59.905Z,39.50
2018-08-07T14:16:41.067Z,40.20
2018-08-07T14:19:21.553Z,40.40
2018-08-07T14:22:02.245Z,40.20
2018-08-07T14:24:42.601Z,40.30
2018-08-07T14:27:23.259Z,39.90
2018-08-07T14:30:04.363Z,40.10
2018-08-07T14:32:44.765Z,40.00
2018-08-07T14:35:25.612Z,40.20
2018-08-07T14:38:06.107Z,39.90
2018-08-07T14:40:46.883Z,39.90
2018-08-07T14:43:27.285Z,39.80
2018-08-07T14:46:08.089Z,39.10
2018-08-07T14:48:49.068Z,38.80
2018-08-07T14:51:30.180Z,38.30
2018-08-07T14:54:11.049Z,38.20
2018-08-07T14:56:51.412Z,36.30
2018-08-07T14:59:32.453Z,38.30
2018-08-07T15:02:13.045Z,38.40
2018-08-07T15:04:53.845Z,38.50
2018-08-07T15:07:34.337Z,38.50
2018-08-07T15:10:18.047Z,38.60
2018-08-07T15:12:58.652Z,38.30
2018-08-07T15:15:39.617Z,37.50
2018-08-07T15:18:20.045Z,37.00
2018-08-07T15:21:00.914Z,36.80
2018-08-07T15:23:41.266Z,36.90
2018-08-07T15:26:21.670Z,37.00
2018-08-07T15:29:02.062Z,36.60
2018-08-07T15:31:43.633Z,36.50
2018-08-07T15:34:24.205Z,36.40
2018-08-07T15:37:04.746Z,36.50
2018-08-07T15:39:45.425Z,36.30
2018-08-07T15:42:26.457Z,36.40
2018-08-07T15:45:07.533Z,36.40
2018-08-07T15:47:48.613Z,36.10
2018-08-07T15:50:29.421Z,35.70
2018-08-07T15:53:09.933Z,35.50
2018-08-07T15:55:50.616Z,35.00
2018-08-07T15:58:31.141Z,34.80
2018-08-07T16:01:11.898Z,34.80
2018-08-07T16:03:53.058Z,34.70
2018-08-07T16:06:34.231Z,34.60
2018-08-07T16:09:14.880Z,34.50
2018-08-07T16:11:56.055Z,34.50
2018-08-07T16:14:36.838Z,34.60
2018-08-07T16:17:17.672Z,34.50
2018-08-07T16:19:58.498Z,34.40
2018-08-07T16:22:40.064Z,34.40
2018-08-07T16:25:21.519Z,34.30
2018-08-07T16:28:02.229Z,34.40
2018-08-07T16:30:42.715Z,34.30
2018-08-07T16:36:04.082Z,34.40
2018-08-07T16:38:44.406Z,34.50
2018-08-07T16:41:25.529Z,34.40
2018-08-07T16:44:06.353Z,34.40
2018-08-07T16:46:47.160Z,34.20
2018-08-07T16:49:27.898Z,34.20
2018-08-07T16:52:08.929Z,34.20
2018-08-07T16:54:49.682Z,34.10
2018-08-07T16:57:30.377Z,34.00
2018-08-07T17:00:12.680Z,33.80
2018-08-07T17:02:53.217Z,33.70
2018-08-07T17:05:34.243Z,33.60
2018-08-07T17:08:14.926Z,33.50
2018-08-07T17:10:55.444Z,33.40
2018-08-07T17:13:35.843Z,33.30
2018-08-07T17:16:16.499Z,33.10
2018-08-07T17:18:58.158Z,32.90
2018-08-07T17:21:39.025Z,32.90
2018-08-07T17:24:20.745Z,32.80
2018-08-07T17:27:01.837Z,32.60
2018-08-07T17:29:42.402Z,32.50
2018-08-07T17:32:23.231Z,32.40
2018-08-07T17:35:03.778Z,32.30
2018-08-07T17:37:44.807Z,32.10
2018-08-07T17:40:30.077Z,32.10
2018-08-07T17:43:12.356Z,32.10
2018-08-07T17:45:52.918Z,32.00
2018-08-07T17:48:33.717Z,31.90
2018-08-07T17:51:14.452Z,31.90
2018-08-07T17:53:58.298Z,31.80
2018-08-07T17:56:38.929Z,31.60
2018-08-07T17:59:19.783Z,31.40
2018-08-07T18:02:00.574Z,31.30
2018-08-07T18:04:41.118Z,31.20
2018-08-07T18:07:21.725Z,31.10
2018-08-07T18:10:02.742Z,30.90
2018-08-07T18:12:43.468Z,30.80
2018-08-07T18:15:24.250Z,30.70
2018-08-07T18:18:05.102Z,30.70
2018-08-07T18:20:45.483Z,30.50
2018-08-07T18:23:26.310Z,30.40
2018-08-07T18:26:06.902Z,30.40
2018-08-07T18:28:47.862Z,30.30
2018-08-07T18:31:28.902Z,30.20
2018-08-07T18:34:09.910Z,30.10
2018-08-07T18:36:50.909Z,30.00
2018-08-07T18:42:12.166Z,29.80
2018-08-07T18:44:52.553Z,29.90
2018-08-07T18:47:33.829Z,29.90
2018-08-07T18:50:17.127Z,29.80
2018-08-07T18:52:58.125Z,29.80
2018-08-07T18:55:39.347Z,29.70
2018-08-07T18:58:20.132Z,29.60
2018-08-07T19:01:01.549Z,29.50
2018-08-07T19:03:42.299Z,29.30
2018-08-07T19:06:23.725Z,29.20
2018-08-07T19:09:07.044Z,29.10
2018-08-07T19:11:48.001Z,28.90
2018-08-07T19:14:28.763Z,28.80
2018-08-07T19:17:10.181Z,28.70
2018-08-07T19:19:51.093Z,28.60
2018-08-07T19:22:32.083Z,28.50
2018-08-07T19:25:13.201Z,28.40
2018-08-07T19:27:54.209Z,28.30
2018-08-07T19:30:35.019Z,28.30
2018-08-07T19:33:15.509Z,28.20
2018-08-07T19:35:56.244Z,28.10
2018-08-07T19:38:37.102Z,28.00
2018-08-07T19:41:17.684Z,27.90
2018-08-07T19:43:58.219Z,27.80
2018-08-07T19:46:39.302Z,27.60
2018-08-07T19:49:20.039Z,27.50
2018-08-07T19:52:00.400Z,27.40
2018-08-07T19:54:41.065Z,27.30
2018-08-07T19:57:21.809Z,27.30
2018-08-07T20:00:02.437Z,27.20
2018-08-07T20:02:44.510Z,25.70
2018-08-07T20:05:25.340Z,27.10
2018-08-07T20:08:06.334Z,27.00
2018-08-07T20:10:47.688Z,27.10
2018-08-07T20:13:29.504Z,27.20
2018-08-07T20:16:11.085Z,27.30
2018-08-07T20:18:52.100Z,27.30
2018-08-07T20:21:32.757Z,27.30
2018-08-07T20:24:13.669Z,27.30
2018-08-07T20:26:54.433Z,27.20
2018-08-07T20:29:35.542Z,27.10
2018-08-07T20:32:16.695Z,27.10
2018-08-07T20:34:57.202Z,26.90
2018-08-07T20:37:38.237Z,26.80
2018-08-07T20:40:22.740Z,26.70
2018-08-07T20:43:04.181Z,26.60
2018-08-07T20:45:45.318Z,26.40
2018-08-07T20:48:26.365Z,26.30
2018-08-07T20:53:47.074Z,26.20
2018-08-07T20:56:28.183Z,26.10
2018-08-07T20:59:09.424Z,26.10
2018-08-07T21:01:50.366Z,26.00
2018-08-07T21:04:31.257Z,25.90
2018-08-07T21:07:11.754Z,25.90
2018-08-07T21:09:52.869Z,25.80
2018-08-07T21:12:33.619Z,25.80
2018-08-07T21:15:14.511Z,25.90
2018-08-07T21:17:55.110Z,25.90
2018-08-07T21:20:36.216Z,25.80
2018-08-07T21:23:16.572Z,25.90
2018-08-07T21:25:57.319Z,25.70
2018-08-07T21:28:38.184Z,25.70
2018-08-07T21:31:19.671Z,25.50
2018-08-07T21:34:00.397Z,25.50
2018-08-07T21:36:41.541Z,25.50
2018-08-07T21:39:22.106Z,25.40
2018-08-07T21:42:02.806Z,25.40
2018-08-07T21:44:44.698Z,25.30
2018-08-07T21:47:25.397Z,25.30
2018-08-07T21:50:09.241Z,25.40
2018-08-07T21:55:31.346Z,25.20
2018-08-07T21:58:12.285Z,25.10
2018-08-07T22:00:53.113Z,25.00
2018-08-07T22:03:33.653Z,25.00
2018-08-07T22:06:15.117Z,25.00
2018-08-07T22:08:56.314Z,25.00
2018-08-07T22:11:36.662Z,24.90
2018-08-07T22:14:17.256Z,24.80
2018-08-07T22:16:57.589Z,24.70
2018-08-07T22:19:38.060Z,24.70
2018-08-07T22:22:18.941Z,24.60
2018-08-07T22:24:59.793Z,24.50
2018-08-07T22:27:40.143Z,24.40
2018-08-07T22:30:22.754Z,24.40
2018-08-07T22:33:04.756Z,24.40
2018-08-07T22:35:45.726Z,24.30
2018-08-07T22:38:26.579Z,24.20
2018-08-07T22:41:07.466Z,24.20
2018-08-07T22:43:47.869Z,24.10
2018-08-07T22:46:29.090Z,24.10
2018-08-07T22:49:10.198Z,24.00
2018-08-07T22:51:51.446Z,24.00
2018-08-07T22:54:32.149Z,23.90
2018-08-07T22:57:12.898Z,23.90
2018-08-07T22:59:53.845Z,23.90
2018-08-07T23:02:34.384Z,23.90
2018-08-07T23:05:16.684Z,23.90
2018-08-07T23:07:57.993Z,23.90
2018-08-07T23:10:38.503Z,23.90
2018-08-07T23:13:19.429Z,24.00
2018-08-07T23:18:40.562Z,23.90
2018-08-07T23:21:21.811Z,23.80
2018-08-07T23:24:02.407Z,23.70
2018-08-07T23:26:42.874Z,23.60
2018-08-07T23:29:23.591Z,23.50
2018-08-07T23:32:04.141Z,23.50
2018-08-07T23:34:44.509Z,23.40
2018-08-07T23:37:25.007Z,23.30
2018-08-07T23:40:08.068Z,23.30
2018-08-07T23:42:48.527Z,23.30
2018-08-07T23:45:29.256Z,23.30
2018-08-07T23:48:10.611Z,23.30
2018-08-07T23:50:51.762Z,23.30
2018-08-07T23:53:32.601Z,23.20
2018-08-07T23:56:48.478Z,23.20
2018-08-07T23:59:29.353Z,23.20
